Time;durP1;ratioP1;P1;durP2;ratioP2;P2;SDS_P1;SDS_P2;PMS_P1;PMS_P2;Temp;Humidity;BMP_temperature;BMP_pressure;BME280_temperature;BME280_humidity;BME280_pressure;Samples;Min_cycle;Max_cycle;Signal;HPM_P1;HPM_P2
2022/09/01 00:01:17;;;;;;;7.00;3.30;;;;;;;14.56;66.75;100670.38;30985378;28;96722;-61
2022/09/01 00:16:19;;;;;;;6.53;2.47;;;;;;;14.56;67.63;100673.06;30982812;28;96790;-61
2022/09/01 00:31:21;;;;;;;4.83;2.60;;;;;;;14.50;67.15;100673.78;30982040;28;98072;-62
2022/09/01 00:46:28;;;;;;;9.90;2.70;;;;;;;14.42;67.81;100680.09;30979902;28;96676;-61
2022/09/01 01:01:28;;;;;;;4.43;2.10;;;;;;;14.38;68.23;100666.22;30979902;28;97383;-61
2022/09/01 01:16:28;;;;;;;3.38;1.92;;;;;;;14.42;69.06;100665.84;30978878;28;96648;-62
2022/09/01 01:31:31;;;;;;;5.65;2.47;;;;;;;14.46;68.73;100667.13;30991417;28;97316;-61
2022/09/01 01:46:34;;;;;;;5.40;2.70;;;;;;;14.50;68.60;100661.25;30997512;28;96865;-61
2022/09/01 02:01:35;;;;;;;4.83;1.87;;;;;;;14.48;68.79;100657.06;30996871;28;97580;-61
2022/09/01 02:16:35;;;;;;;5.10;2.53;;;;;;;14.48;68.86;100647.19;30995225;28;97049;-61
2022/09/01 02:31:39;;;;;;;4.05;2.00;;;;;;;14.49;68.69;100651.53;30992410;28;96847;-62
2022/09/01 02:46:41;;;;;;;6.60;2.37;;;;;;;14.39;68.92;100645.59;30991104;28;97570;-61
2022/09/01 03:01:46;;;;;;;;;;;;;;;14.34;69.10;100648.03;30990191;28;96778;-61
2022/09/01 03:16:47;;;;;;;7.20;2.00;;;;;;;14.33;68.98;100649.84;30988685;28;96723;-61
2022/09/01 03:31:48;;;;;;;5.95;1.77;;;;;;;14.33;68.72;100655.22;30986777;28;96750;-61
2022/09/01 03:46:49;;;;;;;5.97;2.25;;;;;;;14.26;68.98;100658.81;30984530;28;96715;-61
2022/09/01 04:01:49;;;;;;;4.80;2.10;;;;;;;14.29;69.34;100663.81;30982647;28;96699;-61
2022/09/01 04:32:11;;;;;;;5.50;2.30;;;;;;;14.33;68.94;100660.56;30978492;28;96603;-62
2022/09/01 04:47:15;;;;;;;7.07;2.90;;;;;;;14.46;69.03;100661.78;30972701;28;98009;-61
2022/09/01 05:02:15;;;;;;;8.67;2.70;;;;;;;14.74;68.75;100669.22;30893003;28;96944;-61
2022/09/01 05:17:17;;;;;;;8.60;2.92;;;;;;;14.97;68.70;100663.75;30851045;28;101233;-61
2022/09/01 05:32:17;;;;;;;7.70;2.57;;;;;;;15.36;68.27;100667.88;30851905;28;97336;-59
2022/09/01 05:47:20;;;;;;;8.30;3.22;;;;;;;15.82;67.49;100680.16;30847953;28;97547;-59
2022/09/01 06:02:22;;;;;;;4.60;2.20;;;;;;;16.30;66.26;100691.06;30847006;28;96686;-59
2022/09/01 06:17:25;;;;;;;7.73;2.90;;;;;;;16.87;64.86;100697.22;30859362;28;96743;-60
2022/09/01 06:32:26;;;;;;;4.10;2.47;;;;;;;17.51;64.09;100705.13;30866321;28;96780;-60
2022/09/01 06:47:29;;;;;;;8.23;2.03;;;;;;;18.23;62.12;100714.38;30863895;28;98546;-59
2022/09/01 07:02:31;;;;;;;3.50;1.90;;;;;;;19.38;60.54;100712.22;30864788;28;96808;-60
2022/09/01 07:17:31;;;;;;;3.17;1.63;;;;;;;20.12;58.15;100724.25;30862754;28;97908;-60
2022/09/01 07:32:32;;;;;;;5.18;1.67;;;;;;;20.90;55.44;100726.63;30919635;28;100120;-61
2022/09/01 07:47:35;;;;;;;4.73;1.17;;;;;;;22.39;52.65;100733.34;30980151;28;96806;-60
2022/09/01 08:02:39;;;;;;;11.27;1.50;;;;;;;23.63;48.60;100734.03;30979607;28;97398;-62
2022/09/01 08:17:40;;;;;;;5.17;1.37;;;;;;;24.34;45.28;100727.31;30978848;28;96814;-61
2022/09/01 08:32:41;;;;;;;6.28;0.90;;;;;;;25.77;40.86;100734.84;30976224;28;97103;-62
2022/09/01 08:47:41;;;;;;;3.13;0.70;;;;;;;27.38;37.82;100734.78;30975662;28;97045;-62
2022/09/01 09:03:19;;;;;;;3.53;0.90;;;;;;;29.79;32.41;100743.59;30970788;28;96738;-64
2022/09/01 09:18:32;;;;;;;3.07;1.47;;;;;;;31.41;28.45;100731.44;30883559;28;96776;-63
2022/09/01 09:33:36;;;;;;;2.70;1.37;;;;;;;33.53;25.07;100738.31;30843870;28;97412;-62
2022/09/01 09:48:36;;;;;;;0.97;0.60;;;;;;;41.08;17.49;100726.88;30848204;28;97481;-61
2022/09/01 10:03:49;;;;;;;6.47;1.17;;;;;;;35.81;20.05;100730.84;30860197;28;97249;-60
2022/09/01 10:18:51;;;;;;;2.90;0.80;;;;;;;38.30;19.60;100715.53;30857601;28;97289;-62
2022/09/01 10:43:45;;;;;;;3.03;0.50;;;;;;;34.37;21.24;100713.84;30954004;28;97151;-61
2022/09/01 10:59:02;;;;;;;1.80;0.53;;;;;;;40.81;16.46;100720.25;30943472;28;97121;-63
2022/09/01 11:14:15;;;;;;;3.23;0.50;;;;;;;38.54;16.18;100713.94;30945232;28;97787;-65
2022/09/01 11:29:53;;;;;;;2.97;1.10;;;;;;;44.45;11.49;100717.44;30950887;28;96838;-68
2022/09/01 11:45:15;;;;;;;0.73;0.57;;;;;;;39.21;15.00;100708.09;30922348;28;97485;-68
2022/09/01 12:00:26;;;;;;;3.90;0.77;;;;;;;34.73;18.00;100687.94;30864755;28;96756;-67
2022/09/01 12:15:26;;;;;;;5.70;0.70;;;;;;;33.35;18.99;100671.09;30862662;28;97060;-60
2022/09/01 12:30:27;;;;;;;2.13;0.60;;;;;;;31.99;19.91;100662.22;30855052;28;97294;-60
2022/09/01 12:45:45;;;;;;;1.87;0.80;;;;;;;30.02;21.42;100654.97;30853744;28;97124;-59
2022/09/01 13:01:04;;;;;;;2.40;0.90;;;;;;;27.66;25.08;100668.59;30857497;28;97599;-63
2022/09/01 13:16:11;;;;;;;1.60;0.53;;;;;;;27.51;26.43;100657.66;30858522;28;96836;-62
2022/09/01 13:31:12;;;;;;;0.97;0.47;;;;;;;28.35;24.45;100658.16;30856335;28;96900;-62
2022/09/01 13:46:12;;;;;;;1.37;0.57;;;;;;;28.72;24.33;100649.81;30842536;28;97175;-62
2022/09/01 14:01:14;;;;;;;1.52;0.35;;;;;;;27.58;25.50;100655.44;30849853;28;97450;-61
2022/09/01 14:16:15;;;;;;;2.70;0.60;;;;;;;25.63;27.51;100647.97;30788475;28;97464;-62
2022/09/01 14:31:17;;;;;;;1.00;0.35;;;;;;;24.76;27.10;100647.84;30778737;28;97994;-62
2022/09/01 14:46:19;;;;;;;2.03;0.80;;;;;;;23.92;28.17;100627.91;30759877;28;96828;-62
2022/09/01 15:01:20;;;;;;;3.57;0.63;;;;;;;23.41;29.67;100627.03;30794082;28;97926;-62
2022/09/01 15:16:24;;;;;;;3.07;0.80;;;;;;;22.71;31.29;100616.19;30910364;28;96894;-62
2022/09/01 15:31:31;;;;;;;1.20;0.40;;;;;;;22.11;32.75;100620.84;30928853;28;97603;-62
2022/09/01 15:46:33;;;;;;;0.97;0.60;;;;;;;21.43;34.10;100623.00;30923545;28;97587;-63
2022/09/01 16:01:38;;;;;;;3.03;0.50;;;;;;;20.90;35.15;100610.19;30932135;28;97364;-62
2022/09/01 16:16:58;;;;;;;1.80;0.83;;;;;;;20.57;35.74;100603.28;30895705;28;97418;-62
2022/09/01 16:31:59;;;;;;;6.50;0.90;;;;;;;20.44;36.28;100598.88;30902457;28;97336;-61
2022/09/01 16:47:11;;;;;;;6.77;1.03;;;;;;;20.24;36.89;100610.75;30814303;28;96916;-63
2022/09/01 17:02:52;;;;;;;1.70;0.40;;;;;;;19.56;37.81;100606.09;30832678;28;96803;-62
2022/09/01 17:18:08;;;;;;;2.47;0.50;;;;;;;18.90;39.04;100621.69;30855088;28;97397;-61
2022/09/01 17:33:26;;;;;;;8.90;1.67;;;;;;;18.30;40.53;100629.94;30857026;28;97586;-59
2022/09/01 17:48:39;;;;;;;2.57;0.80;;;;;;;17.68;42.36;100659.81;30854410;28;96840;-61
2022/09/01 18:04:09;;;;;;;6.70;1.17;;;;;;;17.07;44.28;100674.97;30853979;28;97117;-63
2022/09/01 18:19:20;;;;;;;1.93;0.70;;;;;;;16.56;45.39;100676.97;30809732;28;96812;-60
2022/09/01 18:34:45;;;;;;;3.65;1.25;;;;;;;16.19;46.40;100688.94;30753658;28;98196;-59
2022/09/01 18:49:54;;;;;;;5.10;1.50;;;;;;;15.90;48.01;100696.13;30758390;28;97069;-60
2022/09/01 19:05:01;;;;;;;5.30;1.50;;;;;;;15.95;48.41;100698.22;30786583;28;97364;-60
2022/09/01 19:20:09;;;;;;;3.50;1.70;;;;;;;15.93;49.33;100700.31;30744034;28;96755;-59
2022/09/01 19:35:14;;;;;;;5.07;1.67;;;;;;;15.84;50.19;100708.50;30733019;28;97218;-60
2022/09/01 19:50:20;;;;;;;4.30;1.57;;;;;;;15.51;50.57;100714.34;30740433;28;98040;-63
2022/09/01 20:05:30;;;;;;;4.43;1.33;;;;;;;15.14;52.08;100715.31;30743471;28;96732;-61
2022/09/01 20:20:42;;;;;;;6.60;2.13;;;;;;;14.83;53.57;100711.00;30745203;28;97264;-63
2022/09/01 20:36:02;;;;;;;3.93;1.50;;;;;;;14.54;54.40;100721.50;30739722;28;96912;-61
2022/09/01 20:51:12;;;;;;;4.80;2.20;;;;;;;14.28;55.72;100729.13;30740452;28;97527;-59
2022/09/01 21:06:27;;;;;;;3.83;1.30;;;;;;;14.16;56.84;100728.72;30740269;28;97365;-61
2022/09/01 21:21:45;;;;;;;6.57;1.90;;;;;;;14.17;57.35;100736.56;30734989;28;97227;-61
2022/09/01 21:36:45;;;;;;;4.23;1.80;;;;;;;14.20;57.82;100738.06;30735946;28;97248;-61
2022/09/01 21:51:46;;;;;;;7.07;1.98;;;;;;;14.28;58.33;100724.59;30735829;28;97393;-60
2022/09/01 22:06:47;;;;;;;6.20;1.70;;;;;;;14.35;58.81;100725.56;30734929;28;96846;-61
2022/09/01 22:21:47;;;;;;;4.97;1.80;;;;;;;14.34;59.19;100721.19;30733622;28;96617;-58
2022/09/01 22:36:48;;;;;;;4.10;1.65;;;;;;;14.24;59.67;100719.78;30731876;28;96665;-60
2022/09/01 22:51:49;;;;;;;3.03;1.55;;;;;;;14.07;59.94;100706.53;30829644;28;96714;-60
2022/09/01 23:06:51;;;;;;;3.17;1.65;;;;;;;13.80;60.72;100718.63;30852074;28;96779;-60
2022/09/01 23:21:51;;;;;;;3.47;1.87;;;;;;;13.77;61.62;100705.63;30849803;28;97178;-60
2022/09/01 23:36:52;;;;;;;5.15;2.17;;;;;;;13.75;61.90;100704.94;30849861;28;97408;-61
2022/09/01 23:51:53;;;;;;;6.15;2.50;;;;;;;13.78;62.21;100702.75;30868935;28;96711;-61
